Krusevac-kosirsko Polje

LYKS · Central Serbia, Serbia

使用的METAR站距离机场49 km。
罗盘
风向 的 Krusevac-kosirsko Polje 2/20
风: 6 kt, 2 beaufort

6 kt

2 kt
改变
0 ft 1.000 2.000 3.000 4.000 5.000
Cloud Cloud
FEW 4.000
METAR LYNI 201100Z VRB06KT 9999 FEW040 37/16 Q1008 NOSIG

METAR Krusevac-kosirsko Polje - LYKS

Krusevac-kosirsko Polje是,Serbia中的小机场。 该机场位于纬度43,56194和经度21,33667。 该机场有一条跑道: 2/20. 本场的ICAO机场代码为LYKS。 机场在Beograd FIR中。

该航空气象观测是针对Nis Airport在2024年7月20日 13:00, 当地时间进行的。

机场观察

可变方向的风很小或没有风。

可见度为10 km 或者更多。

有几云在4.000 ft的高度。 没有观察到天花板。

温度和风寒是37 °C。 露点为16 °C,相对湿度为29%。 海平面上的气压为1008 hPa (QNH)。

白天

今天,太阳从05:12升起,在20:09降落。 这适用于Krusevac-kosirsko Polje,世界夏令时可能有所不同。 当地时间与世界标准时间之间的时差为+2 小时。 夏令时目前正在进行中。

公司介绍

我们没有关于这个机场的公司信息。

体会

到Vliegles.nl去找飞行课程,跳伞和其他飞行体验。 浏览页面,了解Krusevac-kosirsko Polje附近所有可用的活动。 你也可以使用搜索功能来寻找你所在地附近的特定飞行课程、跳伞或其他飞行体验。

跑道

Id 标题 侧风 逆风 侧风 %
2/20 020°-200° 2 kt 6 kt 34 %

逆风成分最大的方向会被突出显示,并用于横风计算。 这并不一定意味着这个方向在使用。

乌云

4.000 ft FEW 几云

温度 & 天气

温度 37 °C
露点 16 °C
相对湿度 29%
Kp-index 1 (0-9)

白天

日出
05:10
中午
12:39
日落
20:07 (6:51)

小工具

你想在你的网站上有一个关于Krusevac-kosirsko Polje的当前航空天气(METAR)的小部件吗?

显示HTML代码
报告变更